AUA161 EDDF-LOWW
Flight info
| Callsign | AUA161 |
|---|---|
| Flight time | N/A |
| Altitude | 31000 |
| Route | SULUS7S/18 SULUS Z650 VEMUT DCT ETVIS DCT BUDWA DCT BUDEX BUDEX2W |
| Aircraft | A320/M-SDE3FGHIRWY/LB1 |
Departure
| Time | N/A |
|---|---|
| Airport | Frankfurt Main Airport (EDDF) |
Arrival
| Time | 2026-04-23 19:35 |
|---|---|
| Airport | Vienna International Airport (LOWW) |
| Time | Latitude | Longitude | Altitude | Speed | Heading |
|---|---|---|---|---|---|
| 2026-04-23 18:57 | 49.73293 | 12.63823 | 31212 ft | 442 kts | 119° |
| 2026-04-23 18:58 | 49.69851 | 12.71641 | 31239 ft | 441 kts | 119° |
| 2026-04-23 18:58 | 49.66392 | 12.79477 | 31232 ft | 441 kts | 119° |
| 2026-04-23 18:59 | 49.62920 | 12.87298 | 31215 ft | 441 kts | 119° |
| 2026-04-23 18:59 | 49.59452 | 12.95104 | 31212 ft | 441 kts | 119° |
| 2026-04-23 19:00 | 49.55975 | 13.02899 | 31203 ft | 441 kts | 119° |
| 2026-04-23 19:00 | 49.52493 | 13.10672 | 31203 ft | 441 kts | 119° |
| 2026-04-23 19:01 | 49.49006 | 13.18432 | 31184 ft | 441 kts | 119° |
| 2026-04-23 19:01 | 49.45535 | 13.26138 | 31191 ft | 441 kts | 119° |
| 2026-04-23 19:02 | 49.42603 | 13.32640 | 31192 ft | 442 kts | 120° |
| 2026-04-23 19:02 | 49.38533 | 13.41631 | 31216 ft | 441 kts | 119° |
| 2026-04-23 19:03 | 49.35029 | 13.49345 | 31231 ft | 440 kts | 119° |
| 2026-04-23 19:03 | 49.31518 | 13.57043 | 31214 ft | 441 kts | 119° |
| 2026-04-23 19:04 | 49.27994 | 13.64730 | 31203 ft | 441 kts | 120° |
| 2026-04-23 19:04 | 49.24402 | 13.72347 | 31198 ft | 441 kts | 120° |
| 2026-04-23 19:05 | 49.20760 | 13.79918 | 31192 ft | 441 kts | 121° |
| 2026-04-23 19:05 | 49.17121 | 13.87493 | 31206 ft | 442 kts | 120° |
| 2026-04-23 19:06 | 49.13512 | 13.95010 | 31184 ft | 442 kts | 120° |
| 2026-04-23 19:06 | 49.09871 | 14.02574 | 31202 ft | 442 kts | 120° |
| 2026-04-23 19:07 | 49.06229 | 14.10122 | 31183 ft | 441 kts | 120° |
| 2026-04-23 19:07 | 49.02579 | 14.17667 | 31186 ft | 441 kts | 120° |
| 2026-04-23 19:08 | 48.98928 | 14.25189 | 31191 ft | 442 kts | 120° |
| 2026-04-23 19:08 | 48.95269 | 14.32702 | 31166 ft | 442 kts | 120° |
| 2026-04-23 19:08 | 48.93430 | 14.36458 | 30906 ft | 444 kts | 121° |
| 2026-04-23 19:09 | 48.91560 | 14.40205 | 30671 ft | 445 kts | 121° |
| 2026-04-23 19:09 | 48.89674 | 14.43934 | 30429 ft | 446 kts | 121° |
| 2026-04-23 19:09 | 48.87798 | 14.47617 | 30182 ft | 447 kts | 122° |
| 2026-04-23 19:09 | 48.85892 | 14.51354 | 29899 ft | 447 kts | 122° |
| 2026-04-23 19:10 | 48.83985 | 14.55092 | 29618 ft | 448 kts | 121° |
| 2026-04-23 19:10 | 48.82076 | 14.58842 | 29355 ft | 449 kts | 121° |
| 2026-04-23 19:10 | 48.80169 | 14.62597 | 29089 ft | 449 kts | 121° |
| 2026-04-23 19:10 | 48.78264 | 14.66347 | 28809 ft | 449 kts | 121° |
| 2026-04-23 19:11 | 48.76352 | 14.70107 | 28539 ft | 450 kts | 121° |
| 2026-04-23 19:11 | 48.74435 | 14.73863 | 28185 ft | 449 kts | 122° |
| 2026-04-23 19:11 | 48.72534 | 14.77575 | 27422 ft | 444 kts | 122° |
| 2026-04-23 19:11 | 48.70649 | 14.81252 | 26707 ft | 439 kts | 122° |
| 2026-04-23 19:12 | 48.69414 | 14.83661 | 26235 ft | 436 kts | 122° |
| 2026-04-23 19:12 | 48.66934 | 14.88493 | 25306 ft | 432 kts | 122° |
| 2026-04-23 19:12 | 48.65100 | 14.92061 | 24630 ft | 428 kts | 122° |
| 2026-04-23 19:12 | 48.63275 | 14.95600 | 23962 ft | 426 kts | 122° |
| 2026-04-23 19:13 | 48.61461 | 14.99114 | 23225 ft | 423 kts | 122° |
| 2026-04-23 19:13 | 48.59812 | 15.02733 | 22603 ft | 412 kts | 114° |
| 2026-04-23 19:13 | 48.58591 | 15.06579 | 21997 ft | 402 kts | 105° |
| 2026-04-23 19:13 | 48.57789 | 15.10558 | 21449 ft | 393 kts | 99° |
| 2026-04-23 19:14 | 48.57119 | 15.14537 | 20907 ft | 389 kts | 99° |
| 2026-04-23 19:14 | 48.56444 | 15.18475 | 20395 ft | 386 kts | 99° |
| 2026-04-23 19:14 | 48.55766 | 15.22380 | 19889 ft | 383 kts | 100° |
| 2026-04-23 19:14 | 48.55091 | 15.26251 | 19395 ft | 380 kts | 100° |
| 2026-04-23 19:15 | 48.54425 | 15.30087 | 18918 ft | 377 kts | 100° |
| 2026-04-23 19:15 | 48.53764 | 15.33898 | 18453 ft | 374 kts | 100° |
| 2026-04-23 19:15 | 48.53114 | 15.37632 | 17936 ft | 371 kts | 100° |
| 2026-04-23 19:15 | 48.52461 | 15.41375 | 17452 ft | 367 kts | 100° |
| 2026-04-23 19:16 | 48.51959 | 15.45104 | 17017 ft | 360 kts | 92° |
| 2026-04-23 19:16 | 48.51757 | 15.48953 | 16882 ft | 375 kts | 90° |
| 2026-04-23 19:16 | 48.51548 | 15.52899 | 16669 ft | 379 kts | 90° |
| 2026-04-23 19:17 | 48.51086 | 15.60831 | 16229 ft | 379 kts | 91° |
| 2026-04-23 19:17 | 48.50848 | 15.64790 | 16014 ft | 379 kts | 91° |
| 2026-04-23 19:17 | 48.50612 | 15.68742 | 15803 ft | 378 kts | 91° |
| 2026-04-23 19:17 | 48.50381 | 15.72692 | 15590 ft | 377 kts | 91° |
| 2026-04-23 19:18 | 48.50153 | 15.76625 | 15377 ft | 377 kts | 91° |
| 2026-04-23 19:18 | 48.49925 | 15.80554 | 15160 ft | 376 kts | 91° |
| 2026-04-23 19:18 | 48.49697 | 15.84479 | 14951 ft | 375 kts | 91° |
| 2026-04-23 19:18 | 48.49465 | 15.88391 | 14737 ft | 375 kts | 91° |
| 2026-04-23 19:19 | 48.49070 | 15.94899 | 14379 ft | 374 kts | 91° |
| 2026-04-23 19:19 | 48.48831 | 15.98800 | 14176 ft | 373 kts | 91° |
| 2026-04-23 19:20 | 48.48295 | 16.06585 | 13729 ft | 375 kts | 96° |
| 2026-04-23 19:20 | 48.47562 | 16.10375 | 13510 ft | 379 kts | 108° |
| 2026-04-23 19:20 | 48.46333 | 16.13915 | 13293 ft | 383 kts | 120° |
| 2026-04-23 19:20 | 48.44821 | 16.17221 | 13090 ft | 383 kts | 121° |
| 2026-04-23 19:21 | 48.43309 | 16.20517 | 12859 ft | 382 kts | 121° |
| 2026-04-23 19:21 | 48.40322 | 16.27052 | 12426 ft | 380 kts | 121° |
| 2026-04-23 19:21 | 48.38827 | 16.30328 | 12212 ft | 379 kts | 121° |
| 2026-04-23 19:22 | 48.37338 | 16.33587 | 11995 ft | 378 kts | 121° |
| 2026-04-23 19:22 | 48.35847 | 16.36837 | 11780 ft | 377 kts | 121° |
| 2026-04-23 19:22 | 48.32872 | 16.43309 | 11349 ft | 375 kts | 121° |
| 2026-04-23 19:23 | 48.31388 | 16.46530 | 11139 ft | 375 kts | 121° |
| 2026-04-23 19:23 | 48.29829 | 16.49646 | 10929 ft | 370 kts | 129° |
| 2026-04-23 19:23 | 48.27978 | 16.52226 | 10812 ft | 357 kts | 140° |
| 2026-04-23 19:24 | 48.24147 | 16.56529 | 10447 ft | 334 kts | 141° |
| 2026-04-23 19:24 | 48.22299 | 16.58606 | 10136 ft | 329 kts | 140° |
| 2026-04-23 19:24 | 48.18821 | 16.62873 | 9465 ft | 316 kts | 128° |
| 2026-04-23 19:25 | 48.16641 | 16.68316 | 8786 ft | 302 kts | 111° |
| 2026-04-23 19:25 | 48.14810 | 16.73870 | 8118 ft | 293 kts | 112° |
| 2026-04-23 19:26 | 48.13012 | 16.79272 | 7461 ft | 286 kts | 111° |
| 2026-04-23 19:26 | 48.12134 | 16.81916 | 7136 ft | 282 kts | 111° |
| 2026-04-23 19:27 | 48.10407 | 16.87121 | 6498 ft | 276 kts | 111° |
| 2026-04-23 19:27 | 48.06942 | 16.93666 | 5466 ft | 276 kts | 159° |
| 2026-04-23 19:28 | 48.03304 | 16.93521 | 4812 ft | 258 kts | 214° |
| 2026-04-23 19:28 | 48.01058 | 16.89942 | 4176 ft | 223 kts | 263° |
| 2026-04-23 19:29 | 48.01015 | 16.87822 | 3926 ft | 198 kts | 295° |
| 2026-04-23 19:29 | 48.02141 | 16.84256 | 3443 ft | 187 kts | 303° |
| 2026-04-23 19:30 | 48.03274 | 16.80829 | 3051 ft | 177 kts | 303° |
| 2026-04-23 19:30 | 48.03804 | 16.79218 | 3030 ft | 170 kts | 303° |
| 2026-04-23 19:30 | 48.04836 | 16.76086 | 3065 ft | 166 kts | 303° |
| 2026-04-23 19:31 | 48.05346 | 16.74536 | 3003 ft | 166 kts | 303° |
| 2026-04-23 19:31 | 48.05853 | 16.72993 | 2846 ft | 165 kts | 303° |
| 2026-04-23 19:31 | 48.06341 | 16.71498 | 2647 ft | 152 kts | 304° |
| 2026-04-23 19:31 | 48.06778 | 16.70159 | 2460 ft | 137 kts | 306° |
| 2026-04-23 19:32 | 48.07188 | 16.68912 | 2302 ft | 132 kts | 306° |
| 2026-04-23 19:32 | 48.07588 | 16.67697 | 2123 ft | 129 kts | 306° |
| 2026-04-23 19:32 | 48.07980 | 16.66501 | 1953 ft | 128 kts | 305° |
| 2026-04-23 19:32 | 48.08375 | 16.65300 | 1781 ft | 129 kts | 304° |
| 2026-04-23 19:33 | 48.08770 | 16.64094 | 1608 ft | 129 kts | 304° |
| 2026-04-23 19:33 | 48.09165 | 16.62890 | 1432 ft | 130 kts | 303° |
| 2026-04-23 19:33 | 48.09957 | 16.60463 | 1072 ft | 129 kts | 299° |
| 2026-04-23 19:34 | 48.10350 | 16.59261 | 900 ft | 128 kts | 299° |
| 2026-04-23 19:34 | 48.10738 | 16.58064 | 742 ft | 128 kts | 299° |
| 2026-04-23 19:34 | 48.11447 | 16.55907 | 620 ft | 82 kts | 296° |
| 2026-04-23 19:35 | 48.11613 | 16.55392 | 616 ft | 27 kts | 296° |
| 2026-04-23 19:35 | 48.11731 | 16.55242 | 609 ft | 23 kts | 326° |
| 2026-04-23 19:35 | 48.11841 | 16.55144 | 611 ft | 16 kts | 354° |
| 2026-04-23 19:35 | 48.11873 | 16.55233 | 620 ft | 12 kts | 114° |
| 2026-04-23 19:36 | 48.11848 | 16.55312 | 612 ft | 11 kts | 115° |
| 2026-04-23 19:36 | 48.11833 | 16.55360 | 613 ft | 11 kts | 116° |
| 2026-04-23 19:36 | 48.11802 | 16.55451 | 609 ft | 10 kts | 116° |
| 2026-04-23 19:36 | 48.11774 | 16.55538 | 617 ft | 9 kts | 115° |
| 2026-04-23 19:37 | 48.11743 | 16.55636 | 619 ft | 14 kts | 116° |
| 2026-04-23 19:37 | 48.11690 | 16.55795 | 609 ft | 21 kts | 117° |
| 2026-04-23 19:37 | 48.11643 | 16.55978 | 609 ft | 11 kts | 70° |
| 2026-04-23 19:37 | 48.11698 | 16.56081 | 612 ft | 16 kts | 70° |
| 2026-04-23 19:38 | 48.11740 | 16.56259 | 614 ft | 20 kts | 68° |
| 2026-04-23 19:38 | 48.11735 | 16.56442 | 618 ft | 20 kts | 116° |
| 2026-04-23 19:38 | 48.11704 | 16.56583 | 621 ft | 8 kts | 52° |
| 2026-04-23 19:38 | 48.11755 | 16.56621 | 615 ft | 5 kts | 26° |
| 2026-04-23 19:39 | 48.11761 | 16.56625 | 613 ft | 0 kts | 26° |